sensor_id;sensor_type;location;lat;lon;timestamp;temperature;humidity
3402;DHT22;1714;49.756;8.610;2023-04-24T03:32:50;10.30;99.90
3402;DHT22;1714;49.756;8.610;2023-04-24T03:43:31;10.20;99.90
3402;DHT22;1714;49.756;8.610;2023-04-24T03:54:09;10.00;99.90
3402;DHT22;1714;49.756;8.610;2023-04-24T04:04:47;9.90;99.90
3402;DHT22;1714;49.756;8.610;2023-04-24T04:15:23;9.80;99.90
3402;DHT22;1714;49.756;8.610;2023-04-24T04:26:00;9.40;99.90
3402;DHT22;1714;49.756;8.610;2023-04-24T04:36:48;9.20;99.90
3402;DHT22;1714;49.756;8.610;2023-04-24T04:47:35;9.10;99.90
3402;DHT22;1714;49.756;8.610;2023-04-24T04:58:11;9.10;99.90
3402;DHT22;1714;49.756;8.610;2023-04-24T05:08:47;9.30;99.90
3402;DHT22;1714;49.756;8.610;2023-04-24T05:19:37;9.60;99.90
3402;DHT22;1714;49.756;8.610;2023-04-24T05:30:16;10.10;95.90
3402;DHT22;1714;49.756;8.610;2023-04-24T05:40:52;11.10;62.30
3402;DHT22;1714;49.756;8.610;2023-04-24T05:51:28;13.90;34.50
3402;DHT22;1714;49.756;8.610;2023-04-24T06:02:04;15.90;25.80
3402;DHT22;1714;49.756;8.610;2023-04-24T06:12:40;17.50;15.30
3402;DHT22;1714;49.756;8.610;2023-04-24T06:23:23;15.20;20.70
3402;DHT22;1714;49.756;8.610;2023-04-24T06:33:58;14.80;20.50
3402;DHT22;1714;49.756;8.610;2023-04-24T06:44:35;17.50;14.10
3402;DHT22;1714;49.756;8.610;2023-04-24T06:55:16;17.70;12.10
3402;DHT22;1714;49.756;8.610;2023-04-24T07:05:51;14.30;21.90
3402;DHT22;1714;49.756;8.610;2023-04-24T07:16:28;13.50;26.50
3402;DHT22;1714;49.756;8.610;2023-04-24T07:27:04;14.00;24.70
3402;DHT22;1714;49.756;8.610;2023-04-24T07:37:40;18.50;12.60
3402;DHT22;1714;49.756;8.610;2023-04-24T07:48:21;17.80;7.30
3402;DHT22;1714;49.756;8.610;2023-04-24T07:58:57;18.70;5.80
3402;DHT22;1714;49.756;8.610;2023-04-24T08:09:33;16.40;10.60
3402;DHT22;1714;49.756;8.610;2023-04-24T08:20:10;13.10;17.30
3402;DHT22;1714;49.756;8.610;2023-04-24T08:30:49;12.20;21.20
3402;DHT22;1714;49.756;8.610;2023-04-24T08:41:30;12.20;22.90
3402;DHT22;1714;49.756;8.610;2023-04-24T08:52:06;16.60;4.40
3402;DHT22;1714;49.756;8.610;2023-04-24T09:02:42;14.80;1.00
3402;DHT22;1714;49.756;8.610;2023-04-24T09:13:21;12.80;1.00
3402;DHT22;1714;49.756;8.610;2023-04-24T09:23:59;11.90;20.30
3402;DHT22;1714;49.756;8.610;2023-04-24T09:34:35;11.50;25.10
3402;DHT22;1714;49.756;8.610;2023-04-24T09:45:11;11.60;23.90
3402;DHT22;1714;49.756;8.610;2023-04-24T09:55:50;11.30;25.80
3402;DHT22;1714;49.756;8.610;2023-04-24T10:06:35;11.70;25.40
3402;DHT22;1714;49.756;8.610;2023-04-24T10:17:12;11.40;28.40
3402;DHT22;1714;49.756;8.610;2023-04-24T10:27:49;12.30;24.30
3402;DHT22;1714;49.756;8.610;2023-04-24T10:38:26;11.90;27.60
3402;DHT22;1714;49.756;8.610;2023-04-24T10:49:07;11.60;28.60
3402;DHT22;1714;49.756;8.610;2023-04-24T10:59:46;11.30;31.60
3402;DHT22;1714;49.756;8.610;2023-04-24T11:10:26;11.90;28.20
3402;DHT22;1714;49.756;8.610;2023-04-24T11:21:12;12.40;24.60
3402;DHT22;1714;49.756;8.610;2023-04-24T11:31:48;12.10;24.30
3402;DHT22;1714;49.756;8.610;2023-04-24T11:42:26;11.80;26.80
3402;DHT22;1714;49.756;8.610;2023-04-24T11:53:04;12.20;24.80
3402;DHT22;1714;49.756;8.610;2023-04-24T12:03:39;12.10;24.70
3402;DHT22;1714;49.756;8.610;2023-04-24T12:14:18;12.70;21.30
3402;DHT22;1714;49.756;8.610;2023-04-24T12:25:04;12.10;26.10
3402;DHT22;1714;49.756;8.610;2023-04-24T12:35:41;10.00;72.20
3402;DHT22;1714;49.756;8.610;2023-04-24T12:46:16;10.20;76.00
3402;DHT22;1714;49.756;8.610;2023-04-24T12:56:55;10.90;52.60
3402;DHT22;1714;49.756;8.610;2023-04-24T13:07:33;12.10;37.20
3402;DHT22;1714;49.756;8.610;2023-04-24T13:18:08;12.30;29.80
3402;DHT22;1714;49.756;8.610;2023-04-24T13:28:44;12.40;27.90
3402;DHT22;1714;49.756;8.610;2023-04-24T13:39:21;13.30;27.20
3402;DHT22;1714;49.756;8.610;2023-04-24T13:49:56;12.80;26.30
3402;DHT22;1714;49.756;8.610;2023-04-24T14:00:32;12.70;25.40
3402;DHT22;1714;49.756;8.610;2023-04-24T14:11:08;12.70;22.50
3402;DHT22;1714;49.756;8.610;2023-04-24T14:21:44;13.10;21.80
3402;DHT22;1714;49.756;8.610;2023-04-24T14:32:19;13.00;22.70
3402;DHT22;1714;49.756;8.610;2023-04-24T14:42:55;12.70;23.00
3402;DHT22;1714;49.756;8.610;2023-04-24T14:53:33;12.70;22.20
3402;DHT22;1714;49.756;8.610;2023-04-24T15:04:08;12.70;24.80
3402;DHT22;1714;49.756;8.610;2023-04-24T15:14:44;12.50;24.70
3402;DHT22;1714;49.756;8.610;2023-04-24T15:25:20;12.40;23.10
3402;DHT22;1714;49.756;8.610;2023-04-24T15:35:56;12.50;22.50
3402;DHT22;1714;49.756;8.610;2023-04-24T15:46:34;13.00;20.30
3402;DHT22;1714;49.756;8.610;2023-04-24T15:57:11;13.00;19.80
3402;DHT22;1714;49.756;8.610;2023-04-24T16:07:47;13.30;21.90
3402;DHT22;1714;49.756;8.610;2023-04-24T16:18:23;13.00;20.80
3402;DHT22;1714;49.756;8.610;2023-04-24T16:28:59;12.60;25.50
3402;DHT22;1714;49.756;8.610;2023-04-24T16:39:35;12.60;28.40
3402;DHT22;1714;49.756;8.610;2023-04-24T16:50:11;12.60;30.60
3402;DHT22;1714;49.756;8.610;2023-04-24T17:00:47;13.10;26.30
3402;DHT22;1714;49.756;8.610;2023-04-24T17:11:23;12.30;28.00
3402;DHT22;1714;49.756;8.610;2023-04-24T17:21:58;11.80;32.80
3402;DHT22;1714;49.756;8.610;2023-04-24T17:32:40;11.80;33.70
3402;DHT22;1714;49.756;8.610;2023-04-24T17:43:16;11.80;33.50
3402;DHT22;1714;49.756;8.610;2023-04-24T17:53:52;11.70;36.20
3402;DHT22;1714;49.756;8.610;2023-04-24T18:04:28;11.60;39.40
3402;DHT22;1714;49.756;8.610;2023-04-24T18:15:05;11.10;50.60
3402;DHT22;1714;49.756;8.610;2023-04-24T18:25:49;10.30;84.50
3402;DHT22;1714;49.756;8.610;2023-04-24T18:36:25;10.00;87.00
3402;DHT22;1714;49.756;8.610;2023-04-24T18:47:01;9.80;89.10
3402;DHT22;1714;49.756;8.610;2023-04-24T18:57:36;9.80;94.90
3402;DHT22;1714;49.756;8.610;2023-04-24T19:08:12;9.70;95.80
3402;DHT22;1714;49.756;8.610;2023-04-24T19:18:48;9.60;95.60
3402;DHT22;1714;49.756;8.610;2023-04-24T19:29:23;9.80;94.10
3402;DHT22;1714;49.756;8.610;2023-04-24T19:40:00;9.60;90.00
3402;DHT22;1714;49.756;8.610;2023-04-24T19:50:36;9.70;90.60
3402;DHT22;1714;49.756;8.610;2023-04-24T20:01:11;9.80;87.50
3402;DHT22;1714;49.756;8.610;2023-04-24T20:11:47;9.80;82.40
3402;DHT22;1714;49.756;8.610;2023-04-24T20:22:25;9.90;68.90
3402;DHT22;1714;49.756;8.610;2023-04-24T20:33:01;9.90;73.70
3402;DHT22;1714;49.756;8.610;2023-04-24T20:43:38;9.90;71.00
3402;DHT22;1714;49.756;8.610;2023-04-24T20:54:14;9.90;71.70
3402;DHT22;1714;49.756;8.610;2023-04-24T21:04:50;9.90;67.80
3402;DHT22;1714;49.756;8.610;2023-04-24T21:15:26;9.80;68.60
3402;DHT22;1714;49.756;8.610;2023-04-24T21:26:02;9.90;66.40
